createdAt,value
2018-05-14T00:01:25.608Z,97.36
2018-05-14T00:03:54.627Z,98.21
2018-05-14T00:06:23.631Z,98.48
2018-05-14T00:08:52.649Z,99.13
2018-05-14T00:11:20.900Z,99.21
2018-05-14T00:13:49.150Z,99.58
2018-05-14T00:16:17.447Z,99.45
2018-05-14T00:18:45.709Z,99.25
2018-05-14T00:21:13.951Z,99.36
2018-05-14T00:23:42.209Z,98.91
2018-05-14T00:26:10.449Z,99.02
2018-05-14T00:28:39.483Z,99.46
2018-05-14T00:31:07.723Z,98.92
2018-05-14T00:33:35.982Z,98.82
2018-05-14T00:36:04.252Z,98.83
2018-05-14T00:38:32.520Z,98.75
2018-05-14T00:41:02.285Z,99.17
2018-05-14T00:43:30.539Z,99.10
2018-05-14T00:45:58.787Z,99.13
2018-05-14T00:48:27.041Z,98.86
2018-05-14T00:50:55.278Z,98.68
2018-05-14T00:53:23.533Z,99.00
2018-05-14T00:55:51.771Z,98.72
2018-05-14T00:58:20.795Z,99.12
2018-05-14T01:00:49.051Z,99.39
2018-05-14T01:03:17.323Z,99.31
2018-05-14T01:05:45.563Z,99.50
2018-05-14T01:08:13.810Z,99.28
2018-05-14T01:10:42.071Z,99.56
2018-05-14T01:13:10.316Z,98.92
2018-05-14T01:15:39.332Z,99.41
2018-05-14T01:18:07.624Z,99.45
2018-05-14T01:20:35.875Z,98.73
2018-05-14T01:23:04.127Z,99.12
2018-05-14T01:25:32.462Z,99.63
2018-05-14T01:28:00.777Z,100.00
2018-05-14T01:30:29.056Z,100.00
2018-05-14T01:32:58.075Z,100.00
2018-05-14T01:35:26.348Z,100.00
2018-05-14T01:37:55.367Z,100.00
2018-05-14T01:40:23.624Z,100.00
2018-05-14T01:42:51.869Z,100.00
2018-05-14T01:45:20.131Z,100.00
2018-05-14T01:47:49.146Z,100.00
2018-05-14T01:50:17.411Z,100.00
2018-05-14T01:52:46.418Z,100.00
2018-05-14T01:55:15.814Z,100.00
2018-05-14T01:57:44.087Z,100.00
2018-05-14T02:00:12.341Z,100.00
2018-05-14T02:02:40.586Z,100.00
2018-05-14T02:05:08.847Z,100.00
2018-05-14T02:07:37.099Z,100.00
2018-05-14T02:10:05.362Z,100.00
2018-05-14T02:12:34.415Z,100.00
2018-05-14T02:15:02.691Z,100.00
2018-05-14T02:17:30.960Z,100.00
2018-05-14T02:19:59.996Z,100.00
2018-05-14T02:22:28.239Z,100.00
2018-05-14T02:24:57.268Z,100.00
2018-05-14T02:27:26.271Z,99.55
2018-05-14T02:29:54.534Z,99.30
2018-05-14T02:32:22.775Z,99.19
2018-05-14T02:34:51.043Z,98.68
2018-05-14T02:37:19.306Z,99.32
2018-05-14T02:39:47.565Z,99.56
2018-05-14T02:42:15.811Z,100.00
2018-05-14T02:44:44.077Z,100.00
2018-05-14T02:47:13.074Z,99.99
2018-05-14T02:49:41.344Z,99.57
2018-05-14T02:52:09.585Z,99.99
2018-05-14T02:54:37.826Z,99.60
2018-05-14T02:57:06.083Z,99.87
2018-05-14T02:59:34.340Z,100.00
2018-05-14T03:02:03.371Z,99.43
2018-05-14T03:04:31.618Z,99.22
2018-05-14T03:06:59.872Z,99.12
2018-05-14T03:09:28.112Z,98.64
2018-05-14T03:11:57.160Z,99.03
2018-05-14T03:14:25.386Z,99.20
2018-05-14T03:16:54.411Z,98.90
2018-05-14T03:19:23.415Z,98.53
2018-05-14T03:21:52.438Z,99.10
2018-05-14T03:24:20.663Z,98.74
2018-05-14T03:26:49.591Z,99.04
2018-05-14T03:29:17.884Z,98.20
2018-05-14T03:31:46.082Z,98.56
2018-05-14T03:34:15.122Z,98.94
2018-05-14T03:36:43.371Z,98.86
2018-05-14T03:39:11.611Z,98.39
2018-05-14T03:41:39.878Z,98.98
2018-05-14T03:44:08.131Z,98.85
2018-05-14T03:46:36.387Z,99.15
2018-05-14T03:49:04.619Z,98.73
2018-05-14T03:51:32.894Z,98.62
2018-05-14T03:54:01.916Z,98.56
2018-05-14T03:56:30.951Z,99.29
2018-05-14T03:59:16.948Z,97.97
2018-05-14T04:02:13.726Z,97.89
2018-05-14T04:04:59.768Z,97.96
2018-05-14T04:07:28.020Z,97.91
2018-05-14T04:09:56.261Z,98.28
2018-05-14T04:12:24.525Z,98.72
2018-05-14T04:14:52.748Z,98.90
2018-05-14T04:17:21.779Z,98.66
2018-05-14T04:19:50.019Z,98.73
2018-05-14T04:22:18.281Z,99.21
2018-05-14T04:24:46.519Z,98.57
2018-05-14T04:27:15.563Z,98.74
2018-05-14T04:29:43.821Z,97.76
2018-05-14T04:32:12.116Z,97.76
2018-05-14T04:34:41.110Z,97.51
2018-05-14T04:37:10.240Z,97.07
2018-05-14T04:39:39.356Z,97.56
2018-05-14T04:42:08.451Z,97.91
2018-05-14T04:44:37.459Z,97.39
2018-05-14T04:47:06.483Z,97.01
2018-05-14T04:49:34.732Z,97.33
2018-05-14T04:52:03.043Z,96.93
2018-05-14T04:54:32.055Z,97.60
2018-05-14T04:57:01.091Z,97.14
2018-05-14T04:59:29.362Z,96.27
2018-05-14T05:01:57.615Z,96.85
2018-05-14T05:04:27.359Z,97.41
2018-05-14T05:06:56.456Z,97.20
2018-05-14T05:09:24.607Z,96.98
2018-05-14T05:11:52.863Z,97.05
2018-05-14T05:14:21.099Z,96.95
2018-05-14T05:16:49.354Z,96.87
2018-05-14T05:19:17.600Z,96.62
2018-05-14T05:21:46.619Z,96.43
2018-05-14T05:24:14.867Z,95.96
2018-05-14T05:26:43.118Z,96.36
2018-05-14T05:29:11.383Z,96.12
2018-05-14T05:31:40.415Z,96.27
2018-05-14T05:34:08.643Z,96.82
2018-05-14T05:36:36.971Z,96.77
2018-05-14T05:39:05.975Z,97.19
2018-05-14T05:41:35.075Z,97.67
2018-05-14T05:44:04.109Z,97.72
2018-05-14T05:46:32.346Z,96.55
2018-05-14T05:49:01.450Z,95.88
2018-05-14T05:51:29.771Z,95.93
2018-05-14T05:53:58.791Z,95.10
2018-05-14T05:56:27.023Z,95.14
2018-05-14T05:58:55.280Z,95.25
2018-05-14T06:01:24.386Z,95.40
2018-05-14T06:03:52.648Z,93.75
2018-05-14T06:06:21.649Z,93.50
2018-05-14T06:08:49.944Z,93.96
2018-05-14T06:11:18.954Z,94.48
2018-05-14T06:13:48.013Z,94.36
2018-05-14T06:16:16.242Z,95.27
2018-05-14T06:18:45.259Z,94.77
2018-05-14T06:21:14.270Z,93.72
2018-05-14T06:23:43.294Z,93.54
2018-05-14T06:26:11.522Z,92.75
2018-05-14T06:28:39.777Z,93.44
2018-05-14T06:31:08.024Z,94.26
2018-05-14T06:33:36.275Z,94.26
2018-05-14T06:36:04.603Z,94.42
2018-05-14T06:38:33.614Z,93.14
2018-05-14T06:41:03.212Z,93.67
2018-05-14T06:43:31.539Z,92.69
2018-05-14T06:45:59.780Z,92.23
2018-05-14T06:48:28.040Z,93.52
2018-05-14T06:50:56.275Z,93.33
2018-05-14T06:53:24.582Z,94.10
2018-05-14T06:55:53.691Z,94.14
2018-05-14T06:58:23.465Z,93.63
2018-05-14T07:00:51.694Z,93.32
2018-05-14T07:03:19.995Z,92.25
2018-05-14T07:05:49.003Z,90.09
2018-05-14T07:08:18.031Z,89.21
2018-05-14T07:10:46.315Z,87.79
2018-05-14T07:13:14.571Z,88.53
2018-05-14T07:15:44.159Z,88.88
2018-05-14T07:18:12.419Z,88.03
2018-05-14T07:20:41.427Z,88.85
2018-05-14T07:23:09.679Z,89.44
2018-05-14T07:25:37.919Z,86.88
2018-05-14T07:28:06.172Z,87.23
2018-05-14T07:30:35.190Z,87.58
2018-05-14T07:33:03.448Z,87.70
2018-05-14T07:35:31.684Z,89.23
2018-05-14T07:37:59.946Z,89.08
2018-05-14T07:40:29.758Z,86.56
2018-05-14T07:42:57.967Z,87.59
2018-05-14T07:45:26.210Z,88.52
2018-05-14T07:47:54.531Z,88.79
2018-05-14T07:50:24.138Z,88.81
2018-05-14T07:52:53.563Z,89.41
2018-05-14T07:55:22.586Z,89.01
2018-05-14T07:57:50.930Z,89.16
2018-05-14T08:00:19.964Z,89.58
2018-05-14T08:02:48.131Z,89.21
2018-05-14T08:05:16.443Z,89.43
2018-05-14T08:07:45.442Z,89.07
2018-05-14T08:10:13.698Z,89.10
2018-05-14T08:12:41.954Z,87.98
2018-05-14T08:15:10.211Z,87.57
2018-05-14T08:17:39.237Z,88.57
2018-05-14T08:20:08.846Z,87.75
2018-05-14T08:22:37.851Z,87.26
2018-05-14T08:25:06.106Z,87.40
2018-05-14T08:27:34.353Z,88.17
2018-05-14T08:30:02.650Z,88.47
2018-05-14T08:32:30.892Z,88.47
2018-05-14T08:34:59.165Z,88.09
2018-05-14T08:37:27.426Z,88.09
2018-05-14T08:39:55.667Z,87.10
2018-05-14T08:42:23.966Z,87.26
2018-05-14T08:44:52.990Z,87.12
2018-05-14T08:47:21.996Z,87.70
2018-05-14T08:49:50.261Z,86.27
2018-05-14T08:52:18.496Z,87.81
2018-05-14T08:54:46.784Z,89.07
2018-05-14T08:57:15.750Z,88.88
2018-05-14T08:59:43.998Z,87.59
2018-05-14T09:02:12.244Z,87.36
2018-05-14T09:04:41.260Z,88.66
2018-05-14T09:07:09.503Z,88.08
2018-05-14T09:09:37.758Z,88.64
2018-05-14T09:12:05.997Z,87.86
2018-05-14T09:14:34.272Z,87.52
2018-05-14T09:17:02.525Z,88.80
2018-05-14T09:19:30.922Z,88.91
2018-05-14T09:21:59.871Z,88.70
2018-05-14T09:24:28.131Z,87.01
2018-05-14T09:26:56.378Z,87.97
2018-05-14T09:29:24.652Z,86.92
2018-05-14T09:31:52.947Z,87.74
2018-05-14T09:34:22.724Z,88.53
2018-05-14T09:36:50.967Z,87.78
2018-05-14T09:39:19.198Z,87.46
2018-05-14T09:41:47.456Z,88.86
2018-05-14T09:44:15.703Z,87.85
2018-05-14T09:46:44.728Z,88.91
2018-05-14T09:49:14.482Z,89.43
2018-05-14T09:51:42.741Z,88.79
2018-05-14T09:54:12.496Z,88.88
2018-05-14T09:56:40.746Z,89.27
2018-05-14T09:59:09.761Z,88.03
2018-05-14T10:01:38.042Z,88.32
2018-05-14T10:04:07.049Z,88.71
2018-05-14T10:06:36.077Z,86.59
2018-05-14T10:09:04.322Z,85.71
2018-05-14T10:11:34.173Z,87.10
2018-05-14T10:14:03.184Z,88.00
2018-05-14T10:16:31.457Z,87.94
2018-05-14T10:19:00.468Z,87.83
2018-05-14T10:21:29.492Z,87.82
2018-05-14T10:23:57.762Z,85.79
2018-05-14T10:26:26.876Z,85.10
2018-05-14T10:28:55.888Z,84.16
2018-05-14T10:31:24.987Z,84.87
2018-05-14T10:33:53.233Z,82.31
2018-05-14T10:36:21.515Z,84.45
2018-05-14T10:38:49.751Z,84.17
2018-05-14T10:41:18.798Z,83.27
2018-05-14T10:43:47.047Z,84.41
2018-05-14T10:46:16.157Z,86.23
2018-05-14T10:48:45.917Z,85.50
2018-05-14T10:51:14.163Z,84.79
2018-05-14T10:53:43.180Z,84.08
2018-05-14T10:56:12.207Z,81.86
2018-05-14T10:58:40.500Z,83.31
2018-05-14T11:01:08.702Z,84.03
2018-05-14T11:03:36.955Z,84.19
2018-05-14T11:06:05.975Z,84.31
2018-05-14T11:08:34.975Z,84.00
2018-05-14T11:11:03.271Z,84.06
2018-05-14T11:13:32.272Z,84.16
2018-05-14T11:16:00.536Z,84.86
2018-05-14T11:18:28.779Z,84.10
2018-05-14T11:20:57.042Z,83.56
2018-05-14T11:23:25.278Z,82.18
2018-05-14T11:25:54.317Z,82.55
2018-05-14T11:28:23.318Z,81.60
2018-05-14T11:30:52.335Z,83.71
2018-05-14T11:33:22.098Z,83.31
2018-05-14T11:35:50.351Z,83.29
2018-05-14T11:38:19.358Z,82.15
2018-05-14T11:40:48.385Z,82.32
2018-05-14T11:43:16.641Z,82.34
2018-05-14T11:45:45.643Z,81.32
2018-05-14T11:48:13.900Z,81.46
2018-05-14T11:50:42.248Z,83.45
2018-05-14T11:53:11.263Z,81.60
2018-05-14T11:55:39.501Z,81.23
2018-05-14T11:58:07.759Z,81.72
2018-05-14T12:00:36.008Z,80.42
2018-05-14T12:03:05.073Z,80.76
2018-05-14T12:05:33.275Z,81.75
2018-05-14T12:08:02.307Z,81.33
2018-05-14T12:10:32.083Z,82.21
2018-05-14T12:13:00.342Z,81.41
2018-05-14T12:15:28.616Z,81.65
2018-05-14T12:17:57.651Z,81.57
2018-05-14T12:20:25.887Z,81.34
2018-05-14T12:22:54.131Z,82.65
2018-05-14T12:25:22.383Z,82.18
2018-05-14T12:27:52.147Z,81.54
2018-05-14T12:30:20.405Z,82.81
2018-05-14T12:32:49.423Z,82.48
2018-05-14T12:35:17.721Z,83.27
2018-05-14T12:37:45.975Z,83.96
2018-05-14T12:40:14.987Z,82.97
2018-05-14T12:42:44.007Z,82.82
2018-05-14T12:45:12.250Z,83.47
2018-05-14T12:47:40.531Z,84.03
2018-05-14T12:50:08.767Z,83.80
2018-05-14T12:52:37.059Z,83.28
2018-05-14T12:55:06.156Z,81.97
2018-05-14T12:57:35.179Z,82.79
2018-05-14T13:00:03.429Z,83.22
2018-05-14T13:02:32.456Z,80.41
2018-05-14T13:05:01.435Z,82.36
2018-05-14T13:07:30.493Z,80.27
2018-05-14T13:09:58.804Z,77.88
2018-05-14T13:12:27.253Z,76.38
2018-05-14T13:14:56.269Z,75.47
2018-05-14T13:17:24.577Z,77.55
2018-05-14T13:19:52.816Z,79.06
2018-05-14T13:22:21.111Z,80.48
2018-05-14T13:24:49.412Z,79.23
2018-05-14T13:27:18.454Z,79.81
2018-05-14T13:29:46.711Z,79.49
2018-05-14T13:32:15.699Z,80.10
2018-05-14T13:34:43.988Z,78.57
2018-05-14T13:37:12.243Z,76.91
2018-05-14T13:39:40.490Z,74.78
2018-05-14T13:42:09.539Z,75.28
2018-05-14T13:44:37.828Z,72.86
2018-05-14T13:47:06.787Z,76.53
2018-05-14T13:49:35.824Z,77.71
2018-05-14T13:52:04.112Z,78.75
2018-05-14T13:54:32.379Z,79.74
2018-05-14T13:57:00.622Z,79.84
2018-05-14T13:59:29.682Z,79.99
2018-05-14T14:01:58.656Z,80.89
2018-05-14T14:04:26.953Z,80.60
2018-05-14T14:06:55.967Z,80.49
2018-05-14T14:09:24.989Z,79.86
2018-05-14T14:11:54.011Z,80.88
2018-05-14T14:14:22.270Z,80.19
2018-05-14T14:16:51.283Z,81.28
2018-05-14T14:19:20.268Z,83.12
2018-05-14T14:21:48.555Z,81.33
2018-05-14T14:24:16.919Z,83.63
2018-05-14T14:26:45.836Z,82.82
2018-05-14T14:29:14.061Z,85.75
2018-05-14T14:31:42.340Z,85.34
2018-05-14T14:34:12.116Z,85.51
2018-05-14T14:36:40.356Z,86.74
2018-05-14T14:39:09.343Z,87.37
2018-05-14T14:41:37.622Z,87.33
2018-05-14T14:44:05.883Z,87.02
2018-05-14T14:46:34.131Z,86.22
2018-05-14T14:49:03.238Z,86.10
2018-05-14T14:51:31.410Z,86.37
2018-05-14T14:53:59.633Z,85.18
2018-05-14T14:56:28.671Z,86.12
2018-05-14T14:58:56.935Z,86.37
2018-05-14T15:01:25.188Z,85.23
2018-05-14T15:03:54.247Z,84.69
2018-05-14T15:06:22.492Z,84.03
2018-05-14T15:08:51.515Z,84.55
2018-05-14T15:11:19.724Z,85.58
2018-05-14T15:13:48.023Z,85.11
2018-05-14T15:16:16.280Z,86.17
2018-05-14T15:18:44.535Z,87.30
2018-05-14T15:21:12.774Z,86.78
2018-05-14T15:23:41.032Z,88.38
2018-05-14T15:26:10.034Z,87.98
2018-05-14T15:28:39.067Z,88.05
2018-05-14T15:31:07.310Z,88.21
2018-05-14T15:33:35.571Z,87.65
2018-05-14T15:36:03.854Z,87.84
2018-05-14T15:38:32.126Z,87.91
2018-05-14T15:41:00.367Z,89.15
2018-05-14T15:43:28.635Z,90.11
2018-05-14T15:45:56.844Z,89.25
2018-05-14T15:48:25.139Z,89.33
2018-05-14T15:50:53.402Z,89.77
2018-05-14T15:53:21.596Z,88.98
2018-05-14T15:55:50.612Z,88.67
2018-05-14T15:58:18.906Z,88.21
2018-05-14T16:00:47.163Z,88.88
2018-05-14T16:03:15.403Z,89.13
2018-05-14T16:05:44.423Z,88.69
2018-05-14T16:08:12.686Z,87.42
2018-05-14T16:10:42.111Z,88.05
2018-05-14T16:13:11.235Z,88.93
2018-05-14T16:15:39.498Z,88.98
2018-05-14T16:18:07.741Z,89.79
2018-05-14T16:20:36.009Z,91.23
2018-05-14T16:23:04.283Z,92.23
2018-05-14T16:25:33.317Z,93.77
2018-05-14T16:28:01.587Z,93.79
2018-05-14T16:30:30.621Z,93.75
2018-05-14T16:32:59.635Z,94.40
2018-05-14T16:35:27.979Z,93.89
2018-05-14T16:37:57.807Z,93.70
2018-05-14T16:40:27.245Z,93.55
2018-05-14T16:42:55.483Z,94.70
2018-05-14T16:45:23.762Z,94.56
2018-05-14T16:47:52.771Z,94.28
2018-05-14T16:50:21.082Z,94.61
2018-05-14T16:52:49.389Z,94.64
2018-05-14T16:55:18.782Z,94.97
2018-05-14T16:57:47.057Z,96.13
2018-05-14T17:00:15.250Z,96.85
2018-05-14T17:02:44.345Z,97.46
2018-05-14T17:05:13.408Z,98.59
2018-05-14T17:07:41.654Z,99.04
2018-05-14T17:10:09.961Z,99.00
2018-05-14T17:12:38.983Z,98.95
2018-05-14T17:15:08.004Z,98.69
2018-05-14T17:17:36.257Z,99.01
2018-05-14T17:20:04.534Z,99.01
2018-05-14T17:22:32.780Z,98.83
2018-05-14T17:25:01.057Z,98.58
2018-05-14T17:27:29.332Z,98.12
2018-05-14T17:29:58.435Z,98.00
2018-05-14T17:32:28.246Z,98.04
2018-05-14T17:34:56.543Z,98.10
2018-05-14T17:37:25.551Z,98.15
2018-05-14T17:39:54.574Z,98.02
2018-05-14T17:42:22.849Z,97.45
2018-05-14T17:44:51.963Z,96.86
2018-05-14T17:47:21.075Z,96.99
2018-05-14T17:49:50.065Z,96.68
2018-05-14T17:52:18.322Z,96.21
2018-05-14T17:54:47.384Z,96.67
2018-05-14T17:57:16.478Z,96.97
2018-05-14T17:59:45.511Z,95.85
2018-05-14T18:02:13.788Z,95.76
2018-05-14T18:04:42.000Z,95.75
2018-05-14T18:07:10.306Z,96.19
2018-05-14T18:09:38.646Z,96.31
2018-05-14T18:12:07.673Z,96.81
2018-05-14T18:14:35.885Z,97.22
2018-05-14T18:17:04.183Z,96.96
2018-05-14T18:19:37.891Z,97.27
2018-05-14T18:22:11.621Z,96.59
2018-05-14T18:27:45.231Z,98.61
2018-05-14T18:30:13.474Z,98.83
2018-05-14T18:35:43.933Z,99.41
2018-05-14T18:38:12.171Z,99.91
2018-05-14T18:40:41.221Z,100.00
2018-05-14T18:43:09.502Z,100.00
2018-05-14T18:45:37.745Z,100.00
2018-05-14T18:48:06.776Z,100.00
2018-05-14T18:50:35.060Z,100.00
2018-05-14T18:53:03.298Z,100.00
2018-05-14T18:55:32.354Z,100.00
2018-05-14T18:58:01.383Z,100.00
2018-05-14T19:00:29.596Z,100.00
2018-05-14T19:02:58.677Z,100.00
2018-05-14T19:05:26.943Z,100.00
2018-05-14T19:07:55.982Z,100.00
2018-05-14T19:10:29.884Z,100.00
2018-05-14T19:12:58.147Z,100.00
2018-05-14T19:15:32.778Z,100.00
2018-05-14T19:18:01.826Z,100.00
2018-05-14T19:20:30.062Z,100.00
2018-05-14T19:23:05.518Z,100.00
2018-05-14T19:25:33.893Z,100.00
2018-05-14T19:28:07.700Z,100.00
2018-05-14T19:30:36.762Z,100.00
2018-05-14T19:33:05.810Z,100.00
2018-05-14T19:35:39.607Z,100.00
2018-05-14T19:38:08.636Z,100.00
2018-05-14T19:40:42.488Z,100.00
2018-05-14T19:43:10.756Z,100.00
2018-05-14T19:45:39.095Z,100.00
2018-05-14T19:48:08.133Z,100.00
2018-05-14T19:50:36.390Z,100.00
2018-05-14T19:53:05.380Z,100.00
2018-05-14T19:55:33.666Z,100.00
2018-05-14T19:58:02.003Z,100.00
2018-05-14T20:00:30.272Z,100.00
2018-05-14T20:02:59.295Z,100.00
2018-05-14T20:05:27.563Z,100.00
2018-05-14T20:07:56.607Z,100.00
2018-05-14T20:10:24.866Z,100.00
2018-05-14T20:12:53.933Z,100.00
2018-05-14T20:15:22.191Z,100.00
2018-05-14T20:17:50.456Z,100.00
2018-05-14T20:20:19.471Z,100.00
2018-05-14T20:22:47.729Z,100.00
2018-05-14T20:25:16.759Z,100.00
2018-05-14T20:27:46.574Z,100.00
2018-05-14T20:30:15.723Z,100.00
2018-05-14T20:32:44.088Z,100.00
2018-05-14T20:35:12.363Z,100.00
2018-05-14T20:37:41.359Z,100.00
2018-05-14T20:40:09.639Z,100.00
2018-05-14T20:42:37.912Z,100.00
2018-05-14T20:45:06.229Z,100.00
2018-05-14T20:47:34.449Z,100.00
2018-05-14T20:50:02.823Z,100.00
2018-05-14T20:52:31.115Z,100.00
2018-05-14T20:54:59.398Z,100.00
2018-05-14T20:57:28.402Z,100.00
2018-05-14T20:59:57.393Z,100.00
2018-05-14T21:02:25.679Z,100.00
2018-05-14T21:04:54.742Z,100.00
2018-05-14T21:07:23.031Z,100.00
2018-05-14T21:09:51.307Z,100.00
2018-05-14T21:12:19.599Z,100.00
2018-05-14T21:14:47.890Z,100.00
2018-05-14T21:17:16.127Z,100.00
2018-05-14T21:19:44.408Z,100.00
2018-05-14T21:22:12.619Z,100.00
2018-05-14T21:24:41.022Z,100.00
2018-05-14T21:27:10.618Z,100.00
2018-05-14T21:29:38.879Z,100.00
2018-05-14T21:32:07.159Z,100.00
2018-05-14T21:34:35.525Z,100.00
2018-05-14T21:37:03.859Z,100.00
2018-05-14T21:39:32.189Z,100.00
2018-05-14T21:42:01.253Z,100.00
2018-05-14T21:44:29.514Z,100.00
2018-05-14T21:46:57.775Z,100.00
2018-05-14T21:49:26.821Z,100.00
2018-05-14T21:51:55.075Z,100.00
2018-05-14T21:54:24.187Z,100.00
2018-05-14T21:56:52.468Z,100.00
2018-05-14T21:59:21.458Z,100.00
2018-05-14T22:01:49.772Z,100.00
2018-05-14T22:04:18.777Z,100.00
2018-05-14T22:06:47.064Z,100.00
2018-05-14T22:09:16.094Z,100.00
2018-05-14T22:11:44.366Z,100.00
2018-05-14T22:14:12.652Z,100.00
2018-05-14T22:16:41.635Z,100.00
2018-05-14T22:19:09.964Z,100.00
2018-05-14T22:21:38.242Z,100.00
2018-05-14T22:24:07.279Z,100.00
2018-05-14T22:26:35.645Z,100.00
2018-05-14T22:29:05.012Z,100.00
2018-05-14T22:31:33.278Z,100.00
2018-05-14T22:34:01.554Z,100.00
2018-05-14T22:36:29.934Z,100.00
2018-05-14T22:38:58.175Z,100.00
2018-05-14T22:41:27.217Z,100.00
2018-05-14T22:43:56.655Z,100.00
2018-05-14T22:46:24.931Z,100.00
2018-05-14T22:48:53.251Z,100.00
2018-05-14T22:51:21.521Z,100.00
2018-05-14T22:53:49.767Z,100.00
2018-05-14T22:56:18.077Z,100.00
2018-05-14T22:58:47.086Z,100.00
2018-05-14T23:01:16.118Z,100.00
2018-05-14T23:03:44.360Z,100.00
2018-05-14T23:06:12.654Z,100.00
2018-05-14T23:08:41.664Z,100.00
2018-05-14T23:11:10.767Z,100.00
2018-05-14T23:13:39.751Z,100.00
2018-05-14T23:16:08.820Z,100.00
2018-05-14T23:18:37.051Z,100.00
2018-05-14T23:21:06.119Z,100.00
2018-05-14T23:23:34.383Z,100.00
2018-05-14T23:26:03.418Z,100.00
2018-05-14T23:28:31.903Z,100.00
2018-05-14T23:31:00.172Z,100.00
2018-05-14T23:33:29.233Z,100.00
2018-05-14T23:35:57.447Z,100.00
2018-05-14T23:38:26.567Z,100.00
2018-05-14T23:40:55.600Z,100.00
2018-05-14T23:43:23.862Z,100.00
2018-05-14T23:45:53.071Z,100.00
2018-05-14T23:48:21.985Z,100.00
2018-05-14T23:50:51.009Z,100.00
2018-05-14T23:53:19.251Z,100.00
2018-05-14T23:55:48.304Z,100.00
2018-05-14T23:58:16.544Z,100.00
